Time;durP1;ratioP1;P1;durP2;ratioP2;P2;SDS_P1;SDS_P2;PMS_P1;PMS_P2;Temp;Humidity;BMP_temperature;BMP_pressure;BME280_temperature;BME280_humidity;BME280_pressure;Samples;Min_cycle;Max_cycle;Signal;HPM_P1;HPM_P2
2022/08/04 00:01:45;;;;;;;8.55;5.93;;;;;;;21.13;60.29;99867.41;5111882;28;20039;-52
2022/08/04 00:04:38;;;;;;;10.05;5.93;;;;;;;21.11;60.56;99866.69;5084458;28;20036;-50
2022/08/04 00:07:16;;;;;;;10.75;5.90;;;;;;;20.89;60.71;99832.22;5109645;28;20067;-52
2022/08/04 00:09:48;;;;;;;11.75;6.47;;;;;;;21.05;60.73;99869.78;5110149;28;20130;-53
2022/08/04 00:12:15;;;;;;;8.60;6.20;;;;;;;21.04;60.76;99865.44;5107158;28;20042;-53
2022/08/04 00:14:50;;;;;;;9.57;6.38;;;;;;;21.00;61.16;99871.91;5109292;28;20043;-50
2022/08/04 00:17:20;;;;;;;11.80;6.20;;;;;;;20.98;61.37;99870.38;5108467;28;20084;-51
2022/08/04 00:19:47;;;;;;;9.50;6.50;;;;;;;20.95;61.49;99866.13;5107350;28;20039;-51
2022/08/04 00:22:17;;;;;;;14.27;8.48;;;;;;;20.93;61.70;99873.34;5110279;28;20062;-52
2022/08/04 00:24:43;;;;;;;15.45;7.47;;;;;;;20.74;61.77;99838.66;5110989;28;20036;-51
2022/08/04 00:27:09;;;;;;;14.90;6.82;;;;;;;20.68;61.62;99837.28;5111578;28;20589;-51
2022/08/04 00:29:38;;;;;;;11.45;6.22;;;;;;;20.90;61.61;99868.28;5109823;28;20035;-52
2022/08/04 00:32:05;;;;;;;9.63;5.97;;;;;;;20.96;61.85;99872.25;5112328;28;20055;-55
2022/08/04 00:34:33;;;;;;;10.40;6.57;;;;;;;20.85;61.71;99851.06;5112287;28;20035;-52
2022/08/04 00:36:59;;;;;;;11.25;6.45;;;;;;;21.08;61.02;99874.00;5093570;28;20043;-50
2022/08/04 00:39:25;;;;;;;11.02;6.78;;;;;;;21.12;60.43;99865.72;5110423;28;20057;-52
2022/08/04 00:42:06;;;;;;;9.68;6.43;;;;;;;21.16;60.28;99876.94;5110933;28;20035;-51
2022/08/04 00:44:53;;;;;;;9.25;6.35;;;;;;;21.18;60.12;99876.84;5109371;28;20043;-52
2022/08/04 00:48:01;;;;;;;13.23;6.30;;;;;;;21.20;60.08;99873.09;5092880;28;20123;-53
2022/08/04 00:50:49;;;;;;;18.73;6.75;;;;;;;21.22;59.98;99881.78;5107521;28;20100;-52
2022/08/04 00:53:36;;;;;;;13.07;7.00;;;;;;;21.25;59.67;99889.47;5109291;28;20070;-52
2022/08/04 00:56:10;;;;;;;10.52;6.38;;;;;;;21.08;59.67;99866.06;5098906;28;20044;-54
2022/08/04 00:58:57;;;;;;;8.27;6.68;;;;;;;21.24;59.52;99889.59;5110092;28;20040;-53
2022/08/04 01:01:28;;;;;;;10.23;5.95;;;;;;;21.24;59.47;99889.59;5105195;28;20043;-50
2022/08/04 01:04:03;;;;;;;14.02;7.00;;;;;;;21.23;59.74;99888.75;5109255;28;20035;-48
2022/08/04 01:06:41;;;;;;;10.75;6.50;;;;;;;21.22;59.54;99894.16;5112979;28;20526;-52
2022/08/04 01:09:35;;;;;;;14.52;6.43;;;;;;;21.18;59.62;99893.53;5111581;27;20050;-51
2022/08/04 01:12:04;;;;;;;11.38;6.38;;;;;;;21.14;60.00;99900.03;5100898;28;20043;-50
2022/08/04 01:14:45;;;;;;;9.25;7.13;;;;;;;21.08;60.36;99896.00;5109446;28;20620;-53
2022/08/04 01:17:11;;;;;;;9.35;6.60;;;;;;;21.02;60.56;99900.91;5111464;28;20039;-51
2022/08/04 01:20:00;;;;;;;14.15;6.90;;;;;;;20.99;60.47;99904.59;5109581;28;20062;-52
2022/08/04 01:22:32;;;;;;;10.75;6.85;;;;;;;20.95;60.32;99902.28;5111134;28;20034;-52
2022/08/04 01:25:09;;;;;;;12.55;6.65;;;;;;;20.91;60.69;99908.75;5109467;28;20047;-49
2022/08/04 01:27:49;;;;;;;12.13;7.20;;;;;;;20.87;60.64;99902.88;5111130;28;20083;-51
2022/08/04 01:30:14;;;;;;;;;;;;;;;20.85;60.73;99896.84;5108754;28;20039;-53
2022/08/04 01:32:58;;;;;;;17.15;7.53;;;;;;;20.78;60.79;99897.41;5110338;28;19931;-51
2022/08/04 01:35:30;;;;;;;14.10;7.13;;;;;;;20.76;60.72;99912.53;5105641;28;20414;-50
2022/08/04 01:38:05;;;;;;;13.93;7.00;;;;;;;20.71;61.04;99905.78;5107464;28;20092;-50
2022/08/04 01:40:31;;;;;;;11.23;7.43;;;;;;;20.69;61.32;99910.31;5108834;28;20097;-50
2022/08/04 01:42:59;;;;;;;14.90;7.53;;;;;;;20.68;61.31;99913.91;5110116;28;20043;-52
2022/08/04 01:45:26;;;;;;;14.25;7.47;;;;;;;20.63;61.13;99904.63;5109779;28;20756;-50
2022/08/04 01:47:54;;;;;;;10.07;7.07;;;;;;;20.64;61.56;99916.91;5109880;28;20039;-52
2022/08/04 01:50:20;;;;;;;13.93;7.57;;;;;;;20.60;61.59;99910.16;5107202;28;20044;-50
2022/08/04 01:52:46;;;;;;;15.82;7.75;;;;;;;20.37;61.69;99879.25;5107176;28;20046;-49
2022/08/04 01:55:14;;;;;;;15.25;7.28;;;;;;;20.58;61.83;99917.34;5109711;28;20036;-51
2022/08/04 01:57:45;;;;;;;11.07;7.28;;;;;;;20.58;61.77;99919.97;5108452;28;20039;-50
2022/08/04 02:00:26;;;;;;;12.50;7.45;;;;;;;20.57;61.54;99916.47;5110556;28;20057;-50
2022/08/04 02:02:53;;;;;;;15.93;7.72;;;;;;;20.56;61.45;99913.97;5110129;28;20503;-48
2022/08/04 02:05:22;;;;;;;15.10;7.03;;;;;;;20.57;61.30;99913.00;5109204;28;20039;-52
2022/08/04 02:08:12;;;;;;;14.10;7.23;;;;;;;20.56;61.49;99908.69;5108112;28;20047;-52
2022/08/04 02:10:41;;;;;;;11.38;8.10;;;;;;;20.55;61.56;99914.94;5109345;28;20289;-51
2022/08/04 02:13:35;;;;;;;13.32;7.97;;;;;;;20.52;61.43;99921.25;5111629;28;20564;-49
2022/08/04 02:16:02;;;;;;;12.27;7.85;;;;;;;20.52;61.46;99915.13;5110260;28;20096;-50
2022/08/04 02:18:50;;;;;;;11.05;7.40;;;;;;;20.51;61.31;99919.59;5107962;28;20039;-53
2022/08/04 02:21:18;;;;;;;13.07;7.50;;;;;;;20.51;61.41;99922.22;5107914;28;20043;-51
2022/08/04 02:23:46;;;;;;;20.83;7.67;;;;;;;20.54;61.64;99915.88;5111080;28;20118;-50
2022/08/04 02:26:17;;;;;;;14.88;8.00;;;;;;;20.54;61.64;99916.72;5107737;28;20057;-51
2022/08/04 02:28:55;;;;;;;12.90;7.38;;;;;;;20.55;61.37;99915.78;5107245;28;20096;-51
2022/08/04 02:31:24;;;;;;;18.88;8.13;;;;;;;20.57;61.10;99926.22;5102441;28;20044;-51
2022/08/04 02:34:33;;;;;;;12.40;8.10;;;;;;;20.57;61.29;99927.06;5090751;28;20140;-53
2022/08/04 02:37:01;;;;;;;14.98;7.53;;;;;;;20.57;61.25;99924.41;5044247;28;20427;-53
2022/08/04 02:39:33;;;;;;;13.63;7.33;;;;;;;20.58;61.50;99931.38;5108410;28;20139;-52
2022/08/04 02:42:01;;;;;;;15.82;8.18;;;;;;;20.57;61.69;99924.41;5108406;28;20298;-50
2022/08/04 02:44:29;;;;;;;15.43;8.60;;;;;;;20.60;61.55;99921.56;5109217;28;20066;-51
2022/08/04 02:46:56;;;;;;;11.02;8.48;;;;;;;20.62;61.41;99932.03;5107715;28;20092;-48
2022/08/04 02:49:22;;;;;;;12.10;7.38;;;;;;;20.61;61.49;99925.91;5108582;28;20426;-47
2022/08/04 02:51:53;;;;;;;18.35;7.80;;;;;;;20.42;61.36;99896.44;5108051;28;20058;-51
2022/08/04 02:54:24;;;;;;;13.68;7.47;;;;;;;20.60;61.71;99926.00;5108515;27;20093;-53
2022/08/04 02:56:52;;;;;;;14.30;7.97;;;;;;;20.57;61.84;99927.06;5107755;28;20057;-50
2022/08/04 02:59:22;;;;;;;11.60;8.45;;;;;;;20.57;61.81;99932.34;5109617;28;20103;-52
2022/08/04 03:01:48;;;;;;;16.13;8.40;;;;;;;20.58;61.65;99935.81;5090113;28;20049;-49
2022/08/04 03:04:26;;;;;;;12.63;8.77;;;;;;;20.59;61.63;99942.81;5109682;28;20122;-51
2022/08/04 03:07:10;;;;;;;13.63;7.97;;;;;;;20.60;61.66;99936.56;5106913;28;20047;-51
2022/08/04 03:10:00;;;;;;;18.02;9.30;;;;;;;20.57;61.90;99942.91;5105580;28;20051;-52
2022/08/04 03:12:51;;;;;;;20.63;9.50;;;;;;;20.58;61.59;99951.69;5107406;28;20624;-51
2022/08/04 03:15:44;;;;;;;16.55;8.40;;;;;;;20.60;61.72;99942.72;5105333;28;20044;-53
2022/08/04 03:18:13;;;;;;;16.08;8.38;;;;;;;20.61;61.52;99940.91;5096409;28;20138;-49
2022/08/04 03:20:51;;;;;;;14.25;8.98;;;;;;;20.64;61.65;99943.31;5108422;28;20422;-51
2022/08/04 03:23:54;;;;;;;15.93;8.85;;;;;;;20.64;61.80;99946.81;5106943;28;20047;-50
2022/08/04 03:26:34;;;;;;;19.60;9.95;;;;;;;20.67;61.71;99949.22;5108107;28;20480;-51
2022/08/04 03:29:25;;;;;;;23.83;10.65;;;;;;;20.68;61.45;99956.19;5107061;28;20035;-52
2022/08/04 03:32:13;;;;;;;16.90;9.38;;;;;;;20.71;61.52;99956.00;5103992;28;20053;-52
2022/08/04 03:35:16;;;;;;;13.80;9.50;;;;;;;20.73;61.82;99959.34;5106081;28;20141;-53
2022/08/04 03:38:10;;;;;;;15.18;10.00;;;;;;;20.77;61.77;99961.78;5057431;28;20060;-51
2022/08/04 03:41:08;;;;;;;15.95;10.05;;;;;;;20.79;62.01;99951.94;5105151;28;20043;-52
2022/08/04 03:43:41;;;;;;;17.95;11.15;;;;;;;20.84;61.51;99963.03;5107353;28;20040;-50
2022/08/04 03:46:12;;;;;;;19.08;11.98;;;;;;;20.86;61.41;99964.63;5108439;28;20139;-50
2022/08/04 03:48:38;;;;;;;22.25;10.18;;;;;;;20.92;61.42;99964.19;5110605;28;20040;-52
2022/08/04 03:54:26;;;;;;;20.17;11.98;;;;;;;21.06;60.78;99963.16;5095305;28;20044;-53
2022/08/04 03:57:04;;;;;;;18.73;11.50;;;;;;;21.13;60.57;99973.19;5106492;28;20498;-51
2022/08/04 03:59:58;;;;;;;20.02;11.82;;;;;;;21.19;60.31;99971.94;5108115;28;20039;-48
2022/08/04 04:02:33;;;;;;;21.95;12.20;;;;;;;21.24;60.19;99969.78;5093342;28;20051;-52
2022/08/04 04:05:04;;;;;;;20.48;11.57;;;;;;;21.30;60.03;99981.72;5107666;28;20127;-51
2022/08/04 04:07:54;;;;;;;19.35;11.52;;;;;;;21.38;59.93;99977.53;5094495;28;20044;-50
2022/08/04 04:10:45;;;;;;;17.73;11.40;;;;;;;21.45;59.15;99983.22;5103116;28;20038;-48
2022/08/04 04:13:38;;;;;;;18.13;11.50;;;;;;;21.51;59.12;99978.28;5110067;28;20063;-49
2022/08/04 04:16:36;;;;;;;17.10;10.50;;;;;;;21.54;59.60;99979.88;5103243;28;21052;-47
2022/08/04 04:19:33;;;;;;;18.60;11.88;;;;;;;21.60;59.24;99990.00;5087146;28;20047;-52
2022/08/04 04:22:23;;;;;;;14.20;10.02;;;;;;;21.71;58.62;99989.22;5108470;28;20039;-51
2022/08/04 04:25:14;;;;;;;17.50;11.13;;;;;;;21.78;58.38;99985.13;5097047;28;20043;-48
2022/08/04 04:28:14;;;;;;;17.55;10.23;;;;;;;21.85;58.19;99989.00;5108333;28;20541;-51
2022/08/04 04:30:48;;;;;;;16.60;10.05;;;;;;;21.92;58.44;99991.06;5081113;28;20070;-49
2022/08/04 04:33:42;;;;;;;18.88;11.23;;;;;;;21.96;58.45;99992.56;5111855;28;20131;-51
2022/08/04 04:36:41;;;;;;;19.02;10.57;;;;;;;22.06;58.03;99992.69;5111630;28;20043;-51
2022/08/04 04:39:22;;;;;;;15.82;9.30;;;;;;;22.14;57.68;99994.75;5091422;28;20644;-53
2022/08/04 04:42:01;;;;;;;14.38;9.07;;;;;;;22.21;57.42;99990.66;5111811;28;20048;-53
2022/08/04 04:44:48;;;;;;;29.00;13.25;;;;;;;22.26;57.59;99992.00;5110607;28;20467;-55
2022/08/04 04:47:33;;;;;;;14.07;8.77;;;;;;;22.34;57.20;99997.56;5106751;28;20040;-52
2022/08/04 04:50:25;;;;;;;14.45;9.52;;;;;;;22.42;56.82;99994.28;5107739;28;20439;-52
2022/08/04 04:53:19;;;;;;;16.08;8.98;;;;;;;22.53;56.42;99998.75;5113212;28;20043;-49
2022/08/04 04:56:17;;;;;;;14.77;9.00;;;;;;;22.63;56.14;100005.00;5110996;28;20175;-50
2022/08/04 04:58:44;;;;;;;48.50;12.13;;;;;;;22.65;56.20;99995.97;5090369;28;20084;-53
2022/08/04 05:01:29;;;;;;;28.02;9.60;;;;;;;22.75;56.13;100007.56;5106933;28;20085;-52
2022/08/04 05:04:08;;;;;;;18.05;8.40;;;;;;;22.79;55.71;100005.50;5093012;28;20475;-52
2022/08/04 05:06:39;;;;;;;;;;;;;;;22.86;55.55;100005.88;5108495;28;20044;-53
2022/08/04 05:09:17;;;;;;;18.42;8.65;;;;;;;22.89;55.42;100006.47;5110048;28;20011;-51
2022/08/04 05:12:00;;;;;;;12.43;8.13;;;;;;;22.97;55.50;99998.75;5111026;28;20126;-53
2022/08/04 05:14:29;;;;;;;14.60;8.40;;;;;;;23.06;55.36;100007.75;5111321;28;20293;-52
2022/08/04 05:17:10;;;;;;;10.40;7.88;;;;;;;23.14;54.85;100000.00;5109800;28;20059;-53
2022/08/04 05:19:38;;;;;;;11.27;7.70;;;;;;;23.23;54.74;100002.78;5094633;28;20040;-53
2022/08/04 05:22:29;;;;;;;16.30;7.32;;;;;;;23.32;54.66;100005.63;5112687;28;20085;-52
2022/08/04 05:25:05;;;;;;;17.30;11.55;;;;;;;23.40;54.41;100012.00;5108591;28;20529;-51
2022/08/04 05:27:36;;;;;;;20.10;6.35;;;;;;;23.41;54.25;100004.88;5122670;27;20063;-50
2022/08/04 05:30:04;;;;;;;16.60;6.45;;;;;;;23.55;53.61;100004.63;5096808;28;20051;-51
2022/08/04 05:32:49;;;;;;;14.68;9.13;;;;;;;23.69;53.38;100006.97;5112385;28;20043;-52
2022/08/04 05:35:35;;;;;;;17.38;9.20;;;;;;;23.81;53.37;100007.75;5090420;28;20404;-53
2022/08/04 05:38:02;;;;;;;13.05;8.80;;;;;;;23.92;53.33;100005.88;5073881;28;20043;-53
2022/08/04 05:40:28;;;;;;;17.38;8.70;;;;;;;24.05;53.11;100003.03;5087461;28;20559;-53
2022/08/04 05:42:55;;;;;;;8.07;5.85;;;;;;;24.17;52.28;100006.47;5106648;28;20176;-51
2022/08/04 05:45:22;;;;;;;11.20;6.50;;;;;;;24.21;51.94;100003.44;5106308;28;20043;-52
2022/08/04 05:47:49;;;;;;;9.30;5.03;;;;;;;24.33;52.00;100005.03;5108053;28;20257;-50
2022/08/04 05:50:15;;;;;;;12.05;5.88;;;;;;;24.39;51.69;100009.00;5090889;28;20062;-54
2022/08/04 05:52:42;;;;;;;9.00;3.90;;;;;;;24.47;51.33;100006.50;5101165;28;20035;-52
2022/08/04 05:55:08;;;;;;;7.38;5.30;;;;;;;24.52;50.32;100003.44;5101547;28;20040;-53
2022/08/04 05:57:34;;;;;;;10.80;5.05;;;;;;;24.51;50.52;99983.13;5109506;28;20043;-52
2022/08/04 06:00:03;;;;;;;4.57;3.95;;;;;;;24.76;50.36;100004.78;5109415;28;20039;-50
2022/08/04 06:02:30;;;;;;;12.30;5.50;;;;;;;24.84;49.36;100002.31;5105257;28;20046;-53
2022/08/04 06:04:56;;;;;;;5.88;3.20;;;;;;;24.94;48.71;100004.19;5106936;28;20035;-51
2022/08/04 06:07:25;;;;;;;5.50;3.70;;;;;;;25.07;48.05;100008.25;5111056;28;20043;-54
2022/08/04 06:09:51;;;;;;;6.40;3.33;;;;;;;25.20;48.34;100013.34;5109516;28;20559;-54
2022/08/04 06:12:26;;;;;;;4.90;2.75;;;;;;;25.31;46.72;100005.22;5111385;28;20081;-53
2022/08/04 06:14:54;;;;;;;5.05;3.63;;;;;;;25.43;46.38;100011.25;5110831;28;20442;-54
2022/08/04 06:17:33;;;;;;;8.55;3.60;;;;;;;25.57;46.27;100006.38;5108361;28;20407;-53
2022/08/04 06:20:02;;;;;;;9.48;3.67;;;;;;;25.79;46.17;100010.59;5108112;28;20059;-52
2022/08/04 06:22:29;;;;;;;7.93;2.90;;;;;;;25.82;45.39;99991.66;5093268;28;20039;-53
2022/08/04 06:24:56;;;;;;;8.93;3.22;;;;;;;25.93;45.29;99980.00;5111519;28;20043;-52
2022/08/04 06:27:22;;;;;;;7.10;3.17;;;;;;;26.12;44.36;99979.94;5110187;28;20040;-50
2022/08/04 06:29:49;;;;;;;9.50;4.70;;;;;;;26.50;44.40;100009.19;5110967;28;20663;-52
2022/08/04 06:32:59;;;;;;;7.28;3.38;;;;;;;26.74;43.62;100005.16;5091207;28;20028;-49
2022/08/04 06:35:06;;;;;;;3.63;2.85;;;;;;;27.32;41.79;100005.69;5096201;28;20062;-52
2022/08/04 06:37:33;;;;;;;5.93;3.15;;;;;;;28.26;39.24;99995.31;5105654;28;20043;-53
2022/08/04 06:40:01;;;;;;;3.65;3.00;;;;;;;29.51;37.40;100015.06;5089583;28;20040;-52
2022/08/04 06:42:27;;;;;;;3.28;2.95;;;;;;;30.45;35.68;99978.59;5100792;28;20080;-50
2022/08/04 06:44:58;;;;;;;7.37;2.97;;;;;;;31.55;33.74;100017.84;5107026;28;20043;-52
2022/08/04 06:47:24;;;;;;;8.55;3.55;;;;;;;32.52;32.37;100006.22;5109390;28;20036;-49
2022/08/04 06:49:52;;;;;;;10.68;4.22;;;;;;;33.36;31.34;99987.81;5108544;28;20499;-51
2022/08/04 06:52:19;;;;;;;16.05;4.53;;;;;;;34.55;29.99;100022.00;5110192;28;20043;-54
2022/08/04 06:54:51;;;;;;;4.60;3.22;;;;;;;35.26;28.08;100021.56;5108968;28;20039;-49
2022/08/04 06:57:22;;;;;;;7.30;3.15;;;;;;;36.09;26.88;100019.38;5109821;28;20076;-55
2022/08/04 06:59:59;;;;;;;6.20;3.88;;;;;;;36.91;25.76;100022.34;5108704;28;20063;-55
2022/08/04 07:02:28;;;;;;;24.05;6.00;;;;;;;37.73;24.95;100015.25;5117322;27;20043;-51
2022/08/04 07:04:55;;;;;;;13.65;4.85;;;;;;;38.61;24.44;100018.63;5109260;28;20066;-56
2022/08/04 07:07:23;;;;;;;27.85;9.57;;;;;;;39.25;23.53;100015.31;5107809;28;20046;-57
2022/08/04 07:09:49;;;;;;;;;;;;;;;39.75;22.84;100013.09;5085572;28;20048;-56
2022/08/04 07:12:20;;;;;;;5.03;3.90;;;;;;;39.62;22.63;100020.66;5104478;28;19920;-53
2022/08/04 07:14:47;;;;;;;6.53;4.25;;;;;;;40.20;21.80;100015.28;5105819;28;20035;-56
2022/08/04 07:17:15;;;;;;;17.15;5.10;;;;;;;41.12;21.36;100013.50;5109003;28;20077;-56
2022/08/04 07:19:43;;;;;;;6.93;4.00;;;;;;;41.88;19.88;100012.16;5109418;28;20039;-56
2022/08/04 07:22:08;;;;;;;;;;;;;;;42.71;19.66;100022.16;5105860;28;20080;-55
2022/08/04 07:24:36;;;;;;;8.13;4.15;;;;;;;43.41;18.72;100019.38;5108786;28;19915;-54
2022/08/04 07:27:02;;;;;;;;;;;;;;;43.18;18.45;100014.25;5108355;28;20047;-57
2022/08/04 07:29:28;;;;;;;6.15;3.83;;;;;;;42.60;17.93;99991.09;5108070;28;19916;-55
2022/08/04 07:31:55;;;;;;;4.10;3.78;;;;;;;42.31;18.22;100011.47;5108544;28;20519;-54
2022/08/04 07:34:22;;;;;;;6.05;4.00;;;;;;;43.53;17.71;100008.31;5109730;28;20043;-54
2022/08/04 07:36:54;;;;;;;15.07;6.40;;;;;;;44.39;16.95;100021.88;5091230;28;20046;-58
2022/08/04 07:39:21;;;;;;;11.35;5.25;;;;;;;44.64;17.03;100011.00;5108868;28;20277;-58
2022/08/04 07:41:47;;;;;;;7.05;4.32;;;;;;;45.14;16.34;100005.72;5108175;28;20039;-58
2022/08/04 07:44:14;;;;;;;5.78;4.22;;;;;;;45.61;15.97;100001.13;5109486;28;20135;-58
2022/08/04 07:46:46;;;;;;;6.28;5.03;;;;;;;46.07;15.57;100012.91;5108124;28;20043;-57
2022/08/04 07:49:12;;;;;;;7.63;4.82;;;;;;;45.88;15.78;100013.50;5107261;28;20051;-59
2022/08/04 07:51:39;;;;;;;4.22;3.92;;;;;;;46.15;15.05;100004.94;5088003;28;20060;-58
2022/08/04 07:54:15;;;;;;;5.83;4.73;;;;;;;46.33;15.23;100007.09;5105858;28;20031;-60
2022/08/04 07:56:42;;;;;;;6.13;4.93;;;;;;;46.56;15.49;100004.88;5100681;28;20047;-58
2022/08/04 07:59:10;;;;;;;7.97;5.28;;;;;;;46.87;14.58;100003.59;5101655;28;20423;-58
2022/08/04 08:01:36;;;;;;;;;;;;;;;47.16;14.63;100004.56;5097627;28;20500;-58
2022/08/04 08:04:04;;;;;;;6.30;4.73;;;;;;;47.24;14.73;100007.81;5100924;28;20014;-58
2022/08/04 08:06:30;;;;;;;6.10;4.88;;;;;;;47.53;14.46;100000.44;5106778;28;20479;-57
2022/08/04 08:08:59;;;;;;;12.95;5.05;;;;;;;47.60;14.24;100003.69;5109923;28;20207;-59
2022/08/04 08:11:26;;;;;;;7.35;4.40;;;;;;;47.65;14.17;99989.91;5109591;28;20484;-59
2022/08/04 08:13:51;;;;;;;4.53;4.10;;;;;;;47.18;13.78;100005.09;5111849;28;20118;-59
2022/08/04 08:16:19;;;;;;;5.03;4.63;;;;;;;46.52;13.68;99999.06;5113158;28;20186;-58
2022/08/04 08:18:46;;;;;;;5.43;4.22;;;;;;;47.01;13.76;100001.06;5112721;28;20068;-57
2022/08/04 08:21:12;;;;;;;6.97;5.22;;;;;;;47.23;13.26;100006.16;5105082;28;20047;-57
2022/08/04 08:23:39;;;;;;;4.85;4.45;;;;;;;47.71;13.26;100001.72;5101305;28;20035;-58
2022/08/04 08:26:05;;;;;;;;;;;;;;;47.67;13.13;100001.47;5110279;28;20035;-59
2022/08/04 08:28:31;;;;;;;5.22;3.97;;;;;;;47.17;13.27;99995.19;5109845;28;19994;-58
2022/08/04 08:30:57;;;;;;;;;;;;;;;47.34;13.40;99986.56;5112390;28;20054;-58
2022/08/04 08:33:24;;;;;;;5.33;4.83;;;;;;;46.70;13.43;99997.63;5111812;28;20315;-58
2022/08/04 08:36:03;;;;;;;4.43;4.13;;;;;;;47.27;13.30;99990.72;5067242;28;20035;-58
2022/08/04 08:38:32;;;;;;;6.35;5.43;;;;;;;47.73;13.04;100005.00;5093181;28;20044;-57
2022/08/04 08:41:14;;;;;;;6.38;4.50;;;;;;;47.98;12.83;99989.03;5106415;28;20134;-58
2022/08/04 08:44:01;;;;;;;5.70;4.40;;;;;;;48.17;12.61;100004.84;5091933;28;20036;-57
2022/08/04 08:46:46;;;;;;;4.80;4.30;;;;;;;47.20;12.54;99982.78;5110699;28;20043;-55
2022/08/04 08:49:45;;;;;;;6.80;3.88;;;;;;;45.55;13.34;99987.38;5095595;28;20130;-56
2022/08/04 08:52:24;;;;;;;4.75;4.35;;;;;;;45.76;13.73;99984.63;5051279;28;20122;-56
2022/08/04 08:55:29;;;;;;;5.68;3.90;;;;;;;46.52;13.28;99988.06;5052076;28;20514;-56
2022/08/04 08:58:20;;;;;;;5.97;4.38;;;;;;;47.55;13.16;99982.53;5070629;28;20036;-58
2022/08/04 09:01:16;;;;;;;4.53;4.13;;;;;;;47.99;12.63;99990.72;5071036;28;20508;-58
2022/08/04 09:03:45;;;;;;;7.40;4.32;;;;;;;48.19;12.56;99983.31;5059759;28;20075;-59
2022/08/04 09:06:38;;;;;;;5.50;4.65;;;;;;;48.32;12.24;99993.63;5063216;28;20083;-57
2022/08/04 09:09:28;;;;;;;5.38;4.88;;;;;;;47.29;12.99;99981.09;5069370;28;20050;-57
2022/08/04 09:12:06;;;;;;;5.82;4.57;;;;;;;47.64;12.48;99982.75;5056576;28;20028;-58
2022/08/04 09:14:41;;;;;;;5.00;4.60;;;;;;;47.63;12.87;99989.38;5071181;28;20047;-58
2022/08/04 09:17:18;;;;;;;4.75;4.35;;;;;;;48.41;12.49;99986.41;5070322;28;20037;-58
2022/08/04 09:19:52;;;;;;;5.88;4.95;;;;;;;48.92;12.08;99983.81;5070979;28;20047;-58
2022/08/04 09:22:51;;;;;;;4.88;4.47;;;;;;;48.07;11.98;99988.41;5071762;28;20032;-59
2022/08/04 09:25:24;;;;;;;5.13;4.78;;;;;;;46.12;13.02;99982.66;5066669;28;20082;-58
2022/08/04 09:27:50;;;;;;;6.68;4.95;;;;;;;46.98;13.04;99985.97;5070655;28;20044;-59
2022/08/04 09:30:21;;;;;;;8.88;6.68;;;;;;;47.53;12.66;99979.22;5070236;28;20539;-58
2022/08/04 09:32:52;;;;;;;7.22;6.47;;;;;;;48.38;12.14;99984.22;5070331;28;20182;-59
2022/08/04 09:35:23;;;;;;;12.65;10.73;;;;;;;48.94;12.00;99981.56;5070303;28;20854;-57
2022/08/04 09:38:03;;;;;;;5.50;5.00;;;;;;;49.28;11.64;99986.88;5071222;28;20135;-58
2022/08/04 09:40:45;;;;;;;6.10;5.50;;;;;;;49.62;11.66;99987.41;5071386;28;20050;-58
2022/08/04 09:43:16;;;;;;;5.32;4.82;;;;;;;49.73;11.35;99984.50;5070745;28;20051;-57
2022/08/04 09:46:07;;;;;;;7.43;6.85;;;;;;;49.78;11.45;99985.22;5070652;28;20040;-58
2022/08/04 09:48:39;;;;;;;7.50;6.03;;;;;;;50.00;11.00;99987.31;5067998;28;20238;-57
2022/08/04 09:51:31;;;;;;;6.95;6.40;;;;;;;49.93;11.48;99957.31;5086990;28;20588;-56
2022/08/04 09:54:05;;;;;;;8.20;7.50;;;;;;;50.08;11.53;99974.72;5110456;28;20035;-57
2022/08/04 09:56:38;;;;;;;8.45;7.75;;;;;;;50.24;11.48;99984.38;5107100;28;20049;-58
2022/08/04 09:59:24;;;;;;;7.13;6.43;;;;;;;50.57;11.02;99980.38;5110069;28;20065;-57
2022/08/04 10:01:55;;;;;;;7.53;6.80;;;;;;;50.96;11.05;99985.34;5090237;28;20074;-55
2022/08/04 10:04:24;;;;;;;8.50;7.65;;;;;;;51.08;11.08;99977.31;5089973;28;20036;-56
2022/08/04 10:07:15;;;;;;;7.47;6.53;;;;;;;50.12;10.87;99984.91;5073395;28;20040;-55
2022/08/04 10:10:31;;;;;;;7.72;6.97;;;;;;;50.11;11.38;99980.47;5089913;28;20466;-58
2022/08/04 10:13:12;;;;;;;8.10;7.32;;;;;;;50.67;11.29;99982.13;5042143;28;20076;-58
2022/08/04 10:15:47;;;;;;;7.70;6.47;;;;;;;50.73;10.54;99978.09;5104488;28;20047;-58
2022/08/04 10:18:25;;;;;;;7.15;6.55;;;;;;;49.97;10.98;99968.56;5110882;28;20067;-58
2022/08/04 10:21:11;;;;;;;10.90;7.93;;;;;;;50.46;11.35;99969.84;5109345;28;20070;-60
2022/08/04 10:23:46;;;;;;;8.55;7.70;;;;;;;50.91;11.16;99973.56;5087556;28;20538;-59
2022/08/04 10:26:26;;;;;;;7.07;6.63;;;;;;;49.87;11.32;99974.28;5110762;28;20035;-59
2022/08/04 10:28:57;;;;;;;7.30;6.80;;;;;;;49.22;11.73;99972.31;5109771;28;20131;-42
2022/08/04 10:31:29;;;;;;;7.18;6.55;;;;;;;48.96;11.37;99972.97;5110614;28;20958;-49
2022/08/04 10:34:00;;;;;;;7.13;6.53;;;;;;;48.78;12.06;99972.69;5109565;28;20035;-43
2022/08/04 10:36:31;;;;;;;7.00;6.40;;;;;;;48.86;11.65;99964.84;5108523;28;20068;-45
2022/08/04 10:39:13;;;;;;;35.30;31.77;;;;;;;49.03;11.65;99963.19;5093260;28;20047;-44
2022/08/04 10:41:52;;;;;;;29.17;26.08;;;;;;;49.49;11.66;99968.84;5109122;28;20532;-42
2022/08/04 10:44:39;;;;;;;28.63;25.15;;;;;;;49.82;11.60;99971.63;5109049;28;20081;-46
2022/08/04 10:47:13;;;;;;;7.32;6.70;;;;;;;49.63;11.17;99955.88;5090478;28;20040;-46
2022/08/04 10:49:45;;;;;;;10.32;9.43;;;;;;;49.62;11.64;99965.28;5089541;28;20040;-44
2022/08/04 10:52:19;;;;;;;6.97;6.45;;;;;;;49.65;11.17;99972.16;5089237;28;20060;-43
2022/08/04 10:55:20;;;;;;;23.85;13.20;;;;;;;49.64;11.50;99970.53;5091730;28;20458;-44
2022/08/04 10:57:51;;;;;;;8.35;7.65;;;;;;;49.69;11.33;99964.91;5105432;28;20149;-43
2022/08/04 11:00:28;;;;;;;7.35;6.80;;;;;;;49.08;11.72;99963.16;5110517;28;20080;-45
2022/08/04 11:03:02;;;;;;;18.98;10.77;;;;;;;49.33;11.99;99961.91;5110766;28;20042;-43
2022/08/04 11:05:38;;;;;;;7.22;6.63;;;;;;;48.74;12.21;99971.63;5110620;28;20069;-47
2022/08/04 11:08:11;;;;;;;17.60;10.35;;;;;;;48.89;12.04;99955.97;5110802;28;20043;-45
2022/08/04 11:10:50;;;;;;;11.10;9.63;;;;;;;49.23;11.92;99956.56;5109540;28;21090;-42
2022/08/04 11:13:16;;;;;;;8.10;7.45;;;;;;;49.21;11.89;99931.97;5109490;28;20039;-43
2022/08/04 11:15:51;;;;;;;19.47;12.90;;;;;;;49.45;11.90;99964.25;5110336;28;20043;-44
2022/08/04 11:18:38;;;;;;;23.80;12.60;;;;;;;48.63;12.58;99963.78;5109431;28;20449;-44
2022/08/04 11:21:12;;;;;;;7.80;7.20;;;;;;;48.76;12.35;99963.06;5110744;28;20085;-41
2022/08/04 11:23:45;;;;;;;9.85;7.88;;;;;;;48.58;12.72;99955.53;5109310;28;20092;-44
2022/08/04 11:26:18;;;;;;;10.52;8.35;;;;;;;48.99;12.31;99956.66;5108771;28;20058;-46
2022/08/04 11:29:14;;;;;;;9.98;8.57;;;;;;;49.37;12.28;99962.13;5109264;28;20079;-43
2022/08/04 11:31:43;;;;;;;19.73;12.40;;;;;;;48.60;12.87;99964.34;5110384;28;20035;-47
2022/08/04 11:34:21;;;;;;;18.48;12.40;;;;;;;47.53;13.44;99929.63;5110465;28;20519;-44
2022/08/04 11:37:05;;;;;;;17.75;11.02;;;;;;;48.05;13.42;99949.28;5110400;28;20473;-45
2022/08/04 11:39:42;;;;;;;8.27;7.47;;;;;;;47.96;13.40;99949.88;5107385;28;20159;-45
2022/08/04 11:42:20;;;;;;;9.68;7.07;;;;;;;46.85;14.23;99936.19;5100070;28;20134;-43
2022/08/04 11:45:00;;;;;;;16.70;10.30;;;;;;;47.12;13.78;99945.63;5095451;28;20557;-44
2022/08/04 11:47:30;;;;;;;41.33;15.48;;;;;;;47.53;13.83;99935.13;5113279;28;20036;-44
2022/08/04 11:50:10;;;;;;;19.30;11.90;;;;;;;47.78;13.47;99941.56;5114384;28;20062;-42
2022/08/04 11:52:39;;;;;;;22.15;11.13;;;;;;;47.88;13.53;99933.16;5113240;28;20233;-43
2022/08/04 11:55:08;;;;;;;20.77;7.60;;;;;;;46.57;14.24;99929.47;5095758;28;20043;-43
2022/08/04 11:57:35;;;;;;;10.63;8.50;;;;;;;44.00;16.01;99926.19;5113051;28;20035;-41
2022/08/04 12:00:04;;;;;;;26.73;11.23;;;;;;;42.71;17.35;99914.66;5114051;28;20517;-41
2022/08/04 12:02:55;;;;;;;11.52;7.47;;;;;;;43.95;16.14;99919.88;5114269;28;20507;-44
2022/08/04 12:05:26;;;;;;;11.07;7.10;;;;;;;44.98;15.39;99909.84;5092192;28;20048;-42
2022/08/04 12:08:20;;;;;;;13.85;8.15;;;;;;;45.69;15.22;99918.97;5092263;28;20040;-42
2022/08/04 12:11:21;;;;;;;28.73;14.57;;;;;;;46.07;15.19;99916.69;5093669;28;20058;-43